sensor_id;sensor_type;location;lat;lon;timestamp;P1;durP1;ratioP1;P2;durP2;ratioP2
52368;SDS011;38298;50.346;3.526;2023-04-05T00:00:43;23.08;;;8.50;;
52368;SDS011;38298;50.346;3.526;2023-04-05T00:03:09;13.48;;;7.32;;
52368;SDS011;38298;50.346;3.526;2023-04-05T00:05:35;16.95;;;8.02;;
52368;SDS011;38298;50.346;3.526;2023-04-05T00:08:01;16.33;;;8.35;;
52368;SDS011;38298;50.346;3.526;2023-04-05T00:10:28;16.05;;;8.02;;
52368;SDS011;38298;50.346;3.526;2023-04-05T00:12:54;14.20;;;8.00;;
52368;SDS011;38298;50.346;3.526;2023-04-05T00:15:20;21.55;;;8.90;;
52368;SDS011;38298;50.346;3.526;2023-04-05T00:17:46;16.00;;;8.18;;
52368;SDS011;38298;50.346;3.526;2023-04-05T00:20:12;14.52;;;7.97;;
52368;SDS011;38298;50.346;3.526;2023-04-05T00:22:40;17.55;;;8.90;;
52368;SDS011;38298;50.346;3.526;2023-04-05T00:25:08;14.88;;;7.68;;
52368;SDS011;38298;50.346;3.526;2023-04-05T00:27:35;21.38;;;8.52;;
52368;SDS011;38298;50.346;3.526;2023-04-05T00:30:01;17.65;;;8.23;;
52368;SDS011;38298;50.346;3.526;2023-04-05T00:32:27;18.42;;;8.23;;
52368;SDS011;38298;50.346;3.526;2023-04-05T00:34:53;20.60;;;8.45;;
52368;SDS011;38298;50.346;3.526;2023-04-05T00:37:20;15.98;;;7.70;;
52368;SDS011;38298;50.346;3.526;2023-04-05T00:39:46;15.00;;;7.75;;
52368;SDS011;38298;50.346;3.526;2023-04-05T00:42:12;19.05;;;8.52;;
52368;SDS011;38298;50.346;3.526;2023-04-05T00:44:38;17.05;;;7.93;;
52368;SDS011;38298;50.346;3.526;2023-04-05T00:47:04;14.50;;;7.93;;
52368;SDS011;38298;50.346;3.526;2023-04-05T00:49:31;14.70;;;7.63;;
52368;SDS011;38298;50.346;3.526;2023-04-05T00:51:58;12.52;;;7.93;;
52368;SDS011;38298;50.346;3.526;2023-04-05T00:54:24;15.45;;;7.88;;
52368;SDS011;38298;50.346;3.526;2023-04-05T00:56:52;15.15;;;8.38;;
52368;SDS011;38298;50.346;3.526;2023-04-05T00:59:19;17.70;;;8.55;;
52368;SDS011;38298;50.346;3.526;2023-04-05T01:01:46;16.58;;;8.32;;
52368;SDS011;38298;50.346;3.526;2023-04-05T01:04:20;16.02;;;8.80;;
52368;SDS011;38298;50.346;3.526;2023-04-05T01:06:51;15.82;;;8.80;;
52368;SDS011;38298;50.346;3.526;2023-04-05T01:11:56;16.90;;;8.15;;
52368;SDS011;38298;50.346;3.526;2023-04-05T01:14:22;14.75;;;7.57;;
52368;SDS011;38298;50.346;3.526;2023-04-05T01:16:48;18.35;;;8.57;;
52368;SDS011;38298;50.346;3.526;2023-04-05T01:19:15;14.25;;;8.25;;
52368;SDS011;38298;50.346;3.526;2023-04-05T01:21:50;13.68;;;7.72;;
52368;SDS011;38298;50.346;3.526;2023-04-05T01:36:54;17.80;;;9.20;;
52368;SDS011;38298;50.346;3.526;2023-04-05T01:39:20;18.25;;;8.75;;
52368;SDS011;38298;50.346;3.526;2023-04-05T01:41:48;17.83;;;8.27;;
52368;SDS011;38298;50.346;3.526;2023-04-05T01:44:14;18.30;;;8.45;;
52368;SDS011;38298;50.346;3.526;2023-04-05T01:46:40;14.18;;;8.00;;
52368;SDS011;38298;50.346;3.526;2023-04-05T01:49:06;16.35;;;9.00;;
52368;SDS011;38298;50.346;3.526;2023-04-05T01:51:32;18.80;;;9.13;;
52368;SDS011;38298;50.346;3.526;2023-04-05T01:53:58;16.98;;;9.38;;
52368;SDS011;38298;50.346;3.526;2023-04-05T01:56:24;17.20;;;8.93;;
52368;SDS011;38298;50.346;3.526;2023-04-05T01:58:51;17.10;;;9.38;;
52368;SDS011;38298;50.346;3.526;2023-04-05T02:01:17;20.90;;;9.18;;
52368;SDS011;38298;50.346;3.526;2023-04-05T02:03:43;15.38;;;8.48;;
52368;SDS011;38298;50.346;3.526;2023-04-05T02:06:09;21.23;;;9.48;;
52368;SDS011;38298;50.346;3.526;2023-04-05T02:08:35;19.33;;;8.60;;
52368;SDS011;38298;50.346;3.526;2023-04-05T02:11:01;23.10;;;9.60;;
52368;SDS011;38298;50.346;3.526;2023-04-05T02:13:27;17.20;;;9.73;;
52368;SDS011;38298;50.346;3.526;2023-04-05T02:15:53;16.55;;;8.57;;
52368;SDS011;38298;50.346;3.526;2023-04-05T02:18:19;17.77;;;9.15;;
52368;SDS011;38298;50.346;3.526;2023-04-05T02:20:59;18.27;;;8.80;;
52368;SDS011;38298;50.346;3.526;2023-04-05T02:23:40;20.02;;;8.85;;
52368;SDS011;38298;50.346;3.526;2023-04-05T02:26:07;17.17;;;8.75;;
52368;SDS011;38298;50.346;3.526;2023-04-05T02:28:33;19.25;;;8.88;;
52368;SDS011;38298;50.346;3.526;2023-04-05T02:30:59;20.52;;;9.10;;
52368;SDS011;38298;50.346;3.526;2023-04-05T02:33:25;15.98;;;9.23;;
52368;SDS011;38298;50.346;3.526;2023-04-05T02:35:53;19.15;;;8.82;;
52368;SDS011;38298;50.346;3.526;2023-04-05T02:38:20;16.88;;;9.10;;
52368;SDS011;38298;50.346;3.526;2023-04-05T02:40:47;17.73;;;8.23;;
52368;SDS011;38298;50.346;3.526;2023-04-05T02:43:13;17.52;;;8.52;;
52368;SDS011;38298;50.346;3.526;2023-04-05T02:45:40;16.58;;;8.70;;
52368;SDS011;38298;50.346;3.526;2023-04-05T02:48:06;16.42;;;8.55;;
52368;SDS011;38298;50.346;3.526;2023-04-05T02:50:32;17.63;;;8.80;;
52368;SDS011;38298;50.346;3.526;2023-04-05T02:52:58;17.90;;;9.75;;
52368;SDS011;38298;50.346;3.526;2023-04-05T02:55:24;23.08;;;9.30;;
52368;SDS011;38298;50.346;3.526;2023-04-05T02:57:56;20.73;;;9.50;;
52368;SDS011;38298;50.346;3.526;2023-04-05T03:00:27;16.00;;;8.57;;
52368;SDS011;38298;50.346;3.526;2023-04-05T03:02:54;17.55;;;9.10;;
52368;SDS011;38298;50.346;3.526;2023-04-05T03:05:20;17.67;;;8.88;;
52368;SDS011;38298;50.346;3.526;2023-04-05T03:07:46;17.15;;;9.20;;
52368;SDS011;38298;50.346;3.526;2023-04-05T03:10:14;17.33;;;8.40;;
52368;SDS011;38298;50.346;3.526;2023-04-05T03:12:43;17.25;;;8.65;;
52368;SDS011;38298;50.346;3.526;2023-04-05T03:15:09;19.08;;;8.80;;
52368;SDS011;38298;50.346;3.526;2023-04-05T03:17:35;19.17;;;9.45;;
52368;SDS011;38298;50.346;3.526;2023-04-05T03:20:02;19.08;;;9.45;;
52368;SDS011;38298;50.346;3.526;2023-04-05T03:22:32;17.30;;;8.77;;
52368;SDS011;38298;50.346;3.526;2023-04-05T03:24:58;18.17;;;8.63;;
52368;SDS011;38298;50.346;3.526;2023-04-05T03:27:25;17.05;;;8.88;;
52368;SDS011;38298;50.346;3.526;2023-04-05T03:29:53;19.13;;;9.15;;
52368;SDS011;38298;50.346;3.526;2023-04-05T03:32:19;22.83;;;9.18;;
52368;SDS011;38298;50.346;3.526;2023-04-05T03:34:45;18.02;;;8.75;;
52368;SDS011;38298;50.346;3.526;2023-04-05T03:37:11;20.10;;;8.98;;
52368;SDS011;38298;50.346;3.526;2023-04-05T03:39:37;20.88;;;9.40;;
52368;SDS011;38298;50.346;3.526;2023-04-05T03:42:03;17.27;;;9.05;;
52368;SDS011;38298;50.346;3.526;2023-04-05T03:44:29;18.17;;;8.90;;
52368;SDS011;38298;50.346;3.526;2023-04-05T03:46:55;22.13;;;9.05;;
52368;SDS011;38298;50.346;3.526;2023-04-05T03:49:21;20.27;;;9.05;;
52368;SDS011;38298;50.346;3.526;2023-04-05T03:51:47;20.70;;;8.98;;
52368;SDS011;38298;50.346;3.526;2023-04-05T03:54:13;16.95;;;9.27;;
52368;SDS011;38298;50.346;3.526;2023-04-05T03:56:39;18.88;;;8.82;;
52368;SDS011;38298;50.346;3.526;2023-04-05T03:59:05;19.25;;;9.52;;
52368;SDS011;38298;50.346;3.526;2023-04-05T04:01:31;23.05;;;9.27;;
52368;SDS011;38298;50.346;3.526;2023-04-05T04:03:57;23.60;;;9.63;;
52368;SDS011;38298;50.346;3.526;2023-04-05T04:06:24;23.42;;;8.77;;
52368;SDS011;38298;50.346;3.526;2023-04-05T04:08:51;19.38;;;9.73;;
52368;SDS011;38298;50.346;3.526;2023-04-05T04:11:17;19.77;;;8.85;;
52368;SDS011;38298;50.346;3.526;2023-04-05T04:13:43;18.08;;;8.82;;
52368;SDS011;38298;50.346;3.526;2023-04-05T04:16:09;20.30;;;9.32;;
52368;SDS011;38298;50.346;3.526;2023-04-05T04:18:35;20.25;;;9.35;;
52368;SDS011;38298;50.346;3.526;2023-04-05T04:21:01;20.88;;;9.23;;
52368;SDS011;38298;50.346;3.526;2023-04-05T04:23:31;19.73;;;9.77;;
52368;SDS011;38298;50.346;3.526;2023-04-05T04:25:58;20.67;;;8.85;;
52368;SDS011;38298;50.346;3.526;2023-04-05T04:28:25;20.38;;;9.80;;
52368;SDS011;38298;50.346;3.526;2023-04-05T04:30:52;21.45;;;9.93;;
52368;SDS011;38298;50.346;3.526;2023-04-05T04:33:17;19.48;;;9.70;;
52368;SDS011;38298;50.346;3.526;2023-04-05T04:35:44;19.75;;;9.00;;
52368;SDS011;38298;50.346;3.526;2023-04-05T04:38:11;20.65;;;9.38;;
52368;SDS011;38298;50.346;3.526;2023-04-05T04:40:44;18.88;;;9.25;;
52368;SDS011;38298;50.346;3.526;2023-04-05T04:43:11;16.20;;;8.98;;
52368;SDS011;38298;50.346;3.526;2023-04-05T04:45:38;22.25;;;9.95;;
52368;SDS011;38298;50.346;3.526;2023-04-05T04:48:05;19.98;;;9.45;;
52368;SDS011;38298;50.346;3.526;2023-04-05T04:50:32;22.33;;;9.82;;
52368;SDS011;38298;50.346;3.526;2023-04-05T04:52:58;19.98;;;9.65;;
52368;SDS011;38298;50.346;3.526;2023-04-05T04:55:25;18.75;;;8.63;;
52368;SDS011;38298;50.346;3.526;2023-04-05T04:57:52;18.85;;;9.07;;
52368;SDS011;38298;50.346;3.526;2023-04-05T05:00:18;18.23;;;9.77;;
52368;SDS011;38298;50.346;3.526;2023-04-05T05:02:44;21.38;;;9.52;;
52368;SDS011;38298;50.346;3.526;2023-04-05T05:05:11;22.52;;;9.57;;
52368;SDS011;38298;50.346;3.526;2023-04-05T05:07:37;19.13;;;9.32;;
52368;SDS011;38298;50.346;3.526;2023-04-05T05:10:05;24.83;;;9.63;;
52368;SDS011;38298;50.346;3.526;2023-04-05T05:12:31;21.60;;;9.23;;
52368;SDS011;38298;50.346;3.526;2023-04-05T05:14:57;20.67;;;9.38;;
52368;SDS011;38298;50.346;3.526;2023-04-05T05:17:24;19.35;;;9.52;;
52368;SDS011;38298;50.346;3.526;2023-04-05T05:19:50;26.90;;;10.10;;
52368;SDS011;38298;50.346;3.526;2023-04-05T05:22:16;22.27;;;9.30;;
52368;SDS011;38298;50.346;3.526;2023-04-05T05:24:43;29.85;;;10.05;;
52368;SDS011;38298;50.346;3.526;2023-04-05T05:27:09;22.17;;;9.77;;
52368;SDS011;38298;50.346;3.526;2023-04-05T05:29:35;20.23;;;9.10;;
52368;SDS011;38298;50.346;3.526;2023-04-05T05:32:01;23.77;;;10.07;;
52368;SDS011;38298;50.346;3.526;2023-04-05T05:34:27;17.85;;;9.63;;
52368;SDS011;38298;50.346;3.526;2023-04-05T05:36:56;18.42;;;9.27;;
52368;SDS011;38298;50.346;3.526;2023-04-05T05:39:22;19.83;;;9.10;;
52368;SDS011;38298;50.346;3.526;2023-04-05T05:41:48;18.40;;;9.50;;
52368;SDS011;38298;50.346;3.526;2023-04-05T05:44:14;22.83;;;9.43;;
52368;SDS011;38298;50.346;3.526;2023-04-05T05:46:40;21.02;;;8.60;;
52368;SDS011;38298;50.346;3.526;2023-04-05T05:49:06;22.75;;;9.02;;
52368;SDS011;38298;50.346;3.526;2023-04-05T05:51:32;18.77;;;8.98;;
52368;SDS011;38298;50.346;3.526;2023-04-05T05:53:58;17.92;;;9.40;;
52368;SDS011;38298;50.346;3.526;2023-04-05T05:56:24;17.52;;;9.00;;
52368;SDS011;38298;50.346;3.526;2023-04-05T05:58:50;18.08;;;9.15;;
52368;SDS011;38298;50.346;3.526;2023-04-05T06:01:16;22.05;;;10.23;;
52368;SDS011;38298;50.346;3.526;2023-04-05T06:03:43;25.33;;;10.55;;
52368;SDS011;38298;50.346;3.526;2023-04-05T06:06:09;23.70;;;9.85;;
52368;SDS011;38298;50.346;3.526;2023-04-05T06:08:35;25.08;;;10.40;;
52368;SDS011;38298;50.346;3.526;2023-04-05T06:11:04;22.57;;;10.63;;
52368;SDS011;38298;50.346;3.526;2023-04-05T06:13:30;24.50;;;10.02;;
52368;SDS011;38298;50.346;3.526;2023-04-05T06:15:56;21.42;;;10.63;;
52368;SDS011;38298;50.346;3.526;2023-04-05T06:18:25;19.15;;;9.98;;
52368;SDS011;38298;50.346;3.526;2023-04-05T06:20:53;24.27;;;9.95;;
52368;SDS011;38298;50.346;3.526;2023-04-05T06:23:19;20.30;;;10.20;;
52368;SDS011;38298;50.346;3.526;2023-04-05T06:25:45;19.92;;;9.88;;
52368;SDS011;38298;50.346;3.526;2023-04-05T06:28:11;22.50;;;9.95;;
52368;SDS011;38298;50.346;3.526;2023-04-05T06:30:37;19.67;;;10.35;;
52368;SDS011;38298;50.346;3.526;2023-04-05T06:33:03;23.42;;;10.23;;
52368;SDS011;38298;50.346;3.526;2023-04-05T06:35:29;22.58;;;10.50;;
52368;SDS011;38298;50.346;3.526;2023-04-05T06:37:55;22.25;;;10.00;;
52368;SDS011;38298;50.346;3.526;2023-04-05T06:40:21;22.02;;;11.45;;
52368;SDS011;38298;50.346;3.526;2023-04-05T06:42:47;25.95;;;11.35;;
52368;SDS011;38298;50.346;3.526;2023-04-05T06:45:13;26.10;;;10.90;;
52368;SDS011;38298;50.346;3.526;2023-04-05T06:47:40;22.30;;;10.27;;
52368;SDS011;38298;50.346;3.526;2023-04-05T06:50:06;23.58;;;10.93;;
52368;SDS011;38298;50.346;3.526;2023-04-05T06:52:33;27.77;;;10.90;;
52368;SDS011;38298;50.346;3.526;2023-04-05T06:55:00;24.60;;;10.75;;
52368;SDS011;38298;50.346;3.526;2023-04-05T06:57:26;26.30;;;12.18;;
52368;SDS011;38298;50.346;3.526;2023-04-05T06:59:52;23.42;;;11.45;;
52368;SDS011;38298;50.346;3.526;2023-04-05T07:02:19;31.73;;;12.15;;
52368;SDS011;38298;50.346;3.526;2023-04-05T07:04:45;22.52;;;11.65;;
52368;SDS011;38298;50.346;3.526;2023-04-05T07:07:11;30.67;;;13.02;;
52368;SDS011;38298;50.346;3.526;2023-04-05T07:09:37;61.72;;;22.42;;
52368;SDS011;38298;50.346;3.526;2023-04-05T07:12:05;62.05;;;24.15;;
52368;SDS011;38298;50.346;3.526;2023-04-05T07:14:31;34.85;;;15.57;;
52368;SDS011;38298;50.346;3.526;2023-04-05T07:16:57;26.08;;;12.82;;
52368;SDS011;38298;50.346;3.526;2023-04-05T07:19:24;25.40;;;12.15;;
52368;SDS011;38298;50.346;3.526;2023-04-05T07:21:50;26.70;;;11.90;;
52368;SDS011;38298;50.346;3.526;2023-04-05T07:24:16;31.25;;;12.02;;
52368;SDS011;38298;50.346;3.526;2023-04-05T07:26:43;24.13;;;11.57;;
52368;SDS011;38298;50.346;3.526;2023-04-05T07:29:10;26.95;;;11.60;;
52368;SDS011;38298;50.346;3.526;2023-04-05T07:31:37;25.23;;;12.15;;
52368;SDS011;38298;50.346;3.526;2023-04-05T07:34:03;29.38;;;12.93;;
52368;SDS011;38298;50.346;3.526;2023-04-05T07:36:30;28.10;;;11.57;;
52368;SDS011;38298;50.346;3.526;2023-04-05T07:38:56;29.98;;;12.73;;
52368;SDS011;38298;50.346;3.526;2023-04-05T07:41:26;30.10;;;11.93;;
52368;SDS011;38298;50.346;3.526;2023-04-05T07:43:55;28.15;;;13.32;;
52368;SDS011;38298;50.346;3.526;2023-04-05T07:46:22;26.38;;;12.52;;
52368;SDS011;38298;50.346;3.526;2023-04-05T07:48:48;27.08;;;12.43;;
52368;SDS011;38298;50.346;3.526;2023-04-05T07:51:14;28.70;;;12.90;;
52368;SDS011;38298;50.346;3.526;2023-04-05T07:53:40;27.85;;;12.32;;
52368;SDS011;38298;50.346;3.526;2023-04-05T07:56:09;30.00;;;12.95;;
52368;SDS011;38298;50.346;3.526;2023-04-05T07:58:36;28.27;;;13.18;;
52368;SDS011;38298;50.346;3.526;2023-04-05T08:01:06;34.28;;;11.90;;
52368;SDS011;38298;50.346;3.526;2023-04-05T08:03:32;26.63;;;11.75;;
52368;SDS011;38298;50.346;3.526;2023-04-05T08:06:07;27.00;;;12.18;;
52368;SDS011;38298;50.346;3.526;2023-04-05T08:08:34;22.73;;;10.57;;
52368;SDS011;38298;50.346;3.526;2023-04-05T08:11:04;28.42;;;11.57;;
52368;SDS011;38298;50.346;3.526;2023-04-05T08:13:30;22.55;;;9.93;;
52368;SDS011;38298;50.346;3.526;2023-04-05T08:15:58;21.83;;;10.73;;
52368;SDS011;38298;50.346;3.526;2023-04-05T08:18:25;27.65;;;12.55;;
52368;SDS011;38298;50.346;3.526;2023-04-05T08:20:54;27.42;;;10.57;;
52368;SDS011;38298;50.346;3.526;2023-04-05T08:23:21;21.80;;;10.38;;
52368;SDS011;38298;50.346;3.526;2023-04-05T08:25:47;24.05;;;9.50;;
52368;SDS011;38298;50.346;3.526;2023-04-05T08:28:13;17.25;;;9.35;;
52368;SDS011;38298;50.346;3.526;2023-04-05T08:30:39;20.45;;;9.82;;
52368;SDS011;38298;50.346;3.526;2023-04-05T08:33:06;17.95;;;9.60;;
52368;SDS011;38298;50.346;3.526;2023-04-05T08:35:34;19.40;;;9.65;;
52368;SDS011;38298;50.346;3.526;2023-04-05T08:38:01;17.10;;;8.80;;
52368;SDS011;38298;50.346;3.526;2023-04-05T08:40:31;16.38;;;8.82;;
52368;SDS011;38298;50.346;3.526;2023-04-05T08:43:46;13.27;;;8.07;;
52368;SDS011;38298;50.346;3.526;2023-04-05T08:45:51;16.98;;;9.60;;
52368;SDS011;38298;50.346;3.526;2023-04-05T08:48:18;20.75;;;8.25;;
52368;SDS011;38298;50.346;3.526;2023-04-05T08:50:51;13.50;;;7.78;;
52368;SDS011;38298;50.346;3.526;2023-04-05T08:53:17;14.38;;;8.13;;
52368;SDS011;38298;50.346;3.526;2023-04-05T08:55:45;12.65;;;7.30;;
52368;SDS011;38298;50.346;3.526;2023-04-05T08:58:12;19.65;;;8.20;;
52368;SDS011;38298;50.346;3.526;2023-04-05T09:00:39;22.52;;;9.23;;
52368;SDS011;38298;50.346;3.526;2023-04-05T09:03:06;19.23;;;8.70;;
52368;SDS011;38298;50.346;3.526;2023-04-05T09:05:36;16.23;;;8.50;;
52368;SDS011;38298;50.346;3.526;2023-04-05T09:08:03;23.13;;;8.00;;
52368;SDS011;38298;50.346;3.526;2023-04-05T09:10:30;14.98;;;6.50;;
52368;SDS011;38298;50.346;3.526;2023-04-05T09:12:56;17.05;;;7.20;;
52368;SDS011;38298;50.346;3.526;2023-04-05T09:15:22;15.05;;;8.13;;
52368;SDS011;38298;50.346;3.526;2023-04-05T09:17:51;15.48;;;8.35;;
52368;SDS011;38298;50.346;3.526;2023-04-05T09:20:17;16.63;;;7.20;;
52368;SDS011;38298;50.346;3.526;2023-04-05T09:22:43;16.67;;;7.70;;
52368;SDS011;38298;50.346;3.526;2023-04-05T09:25:10;22.98;;;7.35;;
52368;SDS011;38298;50.346;3.526;2023-04-05T09:27:52;14.27;;;7.05;;
52368;SDS011;38298;50.346;3.526;2023-04-05T09:30:23;15.95;;;6.60;;
52368;SDS011;38298;50.346;3.526;2023-04-05T09:32:52;11.43;;;5.00;;
52368;SDS011;38298;50.346;3.526;2023-04-05T09:35:23;9.27;;;4.32;;
52368;SDS011;38298;50.346;3.526;2023-04-05T09:37:53;12.13;;;5.93;;
52368;SDS011;38298;50.346;3.526;2023-04-05T09:40:19;8.52;;;4.05;;
52368;SDS011;38298;50.346;3.526;2023-04-05T09:42:45;12.38;;;4.85;;
52368;SDS011;38298;50.346;3.526;2023-04-05T09:45:12;8.20;;;3.72;;
52368;SDS011;38298;50.346;3.526;2023-04-05T09:47:38;11.05;;;4.82;;
52368;SDS011;38298;50.346;3.526;2023-04-05T09:52:41;6.68;;;4.15;;
52368;SDS011;38298;50.346;3.526;2023-04-05T09:55:07;11.10;;;6.93;;
52368;SDS011;38298;50.346;3.526;2023-04-05T09:57:37;10.48;;;6.15;;
52368;SDS011;38298;50.346;3.526;2023-04-05T10:00:04;13.07;;;9.20;;
52368;SDS011;38298;50.346;3.526;2023-04-05T10:02:34;11.90;;;8.32;;
52368;SDS011;38298;50.346;3.526;2023-04-05T10:05:07;14.38;;;9.45;;
52368;SDS011;38298;50.346;3.526;2023-04-05T10:07:37;8.60;;;6.57;;
52368;SDS011;38298;50.346;3.526;2023-04-05T10:10:04;12.27;;;9.48;;
52368;SDS011;38298;50.346;3.526;2023-04-05T10:12:30;12.32;;;9.10;;
52368;SDS011;38298;50.346;3.526;2023-04-05T10:14:57;14.35;;;10.70;;
52368;SDS011;38298;50.346;3.526;2023-04-05T10:17:27;13.35;;;7.55;;
52368;SDS011;38298;50.346;3.526;2023-04-05T10:22:40;25.20;;;11.75;;
52368;SDS011;38298;50.346;3.526;2023-04-05T10:25:12;13.70;;;12.27;;
52368;SDS011;38298;50.346;3.526;2023-04-05T10:27:38;13.23;;;11.90;;
52368;SDS011;38298;50.346;3.526;2023-04-05T10:30:07;11.32;;;8.32;;
52368;SDS011;38298;50.346;3.526;2023-04-05T10:32:55;17.35;;;13.23;;
52368;SDS011;38298;50.346;3.526;2023-04-05T10:40:27;17.27;;;15.65;;
52368;SDS011;38298;50.346;3.526;2023-04-05T10:42:58;16.23;;;14.70;;
52368;SDS011;38298;50.346;3.526;2023-04-05T10:45:25;17.95;;;16.40;;
52368;SDS011;38298;50.346;3.526;2023-04-05T10:48:15;17.50;;;15.93;;
52368;SDS011;38298;50.346;3.526;2023-04-05T10:50:44;19.00;;;17.20;;
52368;SDS011;38298;50.346;3.526;2023-04-05T10:53:12;27.48;;;25.15;;
52368;SDS011;38298;50.346;3.526;2023-04-05T10:55:38;19.95;;;18.38;;
52368;SDS011;38298;50.346;3.526;2023-04-05T10:58:04;23.27;;;21.20;;
52368;SDS011;38298;50.346;3.526;2023-04-05T11:00:30;26.33;;;24.08;;
52368;SDS011;38298;50.346;3.526;2023-04-05T11:02:57;26.90;;;24.13;;
52368;SDS011;38298;50.346;3.526;2023-04-05T11:05:28;26.40;;;24.20;;
52368;SDS011;38298;50.346;3.526;2023-04-05T11:07:56;28.80;;;26.42;;
52368;SDS011;38298;50.346;3.526;2023-04-05T11:10:24;26.33;;;24.38;;
52368;SDS011;38298;50.346;3.526;2023-04-05T11:13:01;29.02;;;26.88;;
52368;SDS011;38298;50.346;3.526;2023-04-05T11:18:10;30.80;;;28.30;;
52368;SDS011;38298;50.346;3.526;2023-04-05T11:20:52;31.70;;;29.10;;
52368;SDS011;38298;50.346;3.526;2023-04-05T11:23:22;34.60;;;31.77;;
52368;SDS011;38298;50.346;3.526;2023-04-05T11:26:07;30.45;;;27.92;;
52368;SDS011;38298;50.346;3.526;2023-04-05T11:28:34;32.08;;;29.38;;
52368;SDS011;38298;50.346;3.526;2023-04-05T11:36:04;29.70;;;27.52;;
52368;SDS011;38298;50.346;3.526;2023-04-05T11:38:30;39.58;;;36.55;;
52368;SDS011;38298;50.346;3.526;2023-04-05T11:43:31;37.35;;;34.45;;
52368;SDS011;38298;50.346;3.526;2023-04-05T11:46:01;39.75;;;36.38;;
52368;SDS011;38298;50.346;3.526;2023-04-05T11:48:30;40.65;;;37.50;;
52368;SDS011;38298;50.346;3.526;2023-04-05T11:50:56;40.58;;;37.45;;
52368;SDS011;38298;50.346;3.526;2023-04-05T11:53:22;39.00;;;36.17;;
52368;SDS011;38298;50.346;3.526;2023-04-05T11:55:49;42.80;;;39.47;;
52368;SDS011;38298;50.346;3.526;2023-04-05T11:58:16;48.00;;;44.17;;
52368;SDS011;38298;50.346;3.526;2023-04-05T12:00:43;45.60;;;42.10;;
52368;SDS011;38298;50.346;3.526;2023-04-05T12:03:10;42.47;;;39.00;;
52368;SDS011;38298;50.346;3.526;2023-04-05T12:05:52;40.97;;;37.85;;
52368;SDS011;38298;50.346;3.526;2023-04-05T12:08:19;49.22;;;45.47;;
52368;SDS011;38298;50.346;3.526;2023-04-05T12:10:57;45.45;;;42.03;;
52368;SDS011;38298;50.346;3.526;2023-04-05T12:15:51;43.22;;;40.03;;
52368;SDS011;38298;50.346;3.526;2023-04-05T12:18:17;47.95;;;44.25;;
52368;SDS011;38298;50.346;3.526;2023-04-05T12:20:44;45.70;;;42.22;;
52368;SDS011;38298;50.346;3.526;2023-04-05T12:23:13;46.70;;;43.22;;
52368;SDS011;38298;50.346;3.526;2023-04-05T12:25:41;54.85;;;50.67;;
52368;SDS011;38298;50.346;3.526;2023-04-05T12:28:10;48.53;;;45.08;;
52368;SDS011;38298;50.346;3.526;2023-04-05T12:30:36;52.72;;;48.80;;
52368;SDS011;38298;50.346;3.526;2023-04-05T12:33:12;51.20;;;47.42;;
52368;SDS011;38298;50.346;3.526;2023-04-05T12:35:38;44.05;;;40.88;;
52368;SDS011;38298;50.346;3.526;2023-04-05T12:38:04;47.67;;;44.35;;
52368;SDS011;38298;50.346;3.526;2023-04-05T12:40:35;46.35;;;42.72;;
52368;SDS011;38298;50.346;3.526;2023-04-05T12:43:02;42.20;;;38.85;;
52368;SDS011;38298;50.346;3.526;2023-04-05T12:45:28;52.78;;;48.63;;
52368;SDS011;38298;50.346;3.526;2023-04-05T12:47:56;48.03;;;44.65;;
52368;SDS011;38298;50.346;3.526;2023-04-05T12:50:27;47.65;;;44.05;;
52368;SDS011;38298;50.346;3.526;2023-04-05T12:55:19;49.75;;;45.72;;
52368;SDS011;38298;50.346;3.526;2023-04-05T12:57:52;46.58;;;43.20;;
52368;SDS011;38298;50.346;3.526;2023-04-05T13:00:19;49.03;;;45.63;;
52368;SDS011;38298;50.346;3.526;2023-04-05T13:02:48;46.97;;;43.67;;
52368;SDS011;38298;50.346;3.526;2023-04-05T13:05:17;44.30;;;40.80;;
52368;SDS011;38298;50.346;3.526;2023-04-05T13:07:43;41.78;;;38.55;;
52368;SDS011;38298;50.346;3.526;2023-04-05T13:10:09;46.80;;;43.55;;
52368;SDS011;38298;50.346;3.526;2023-04-05T13:12:35;44.90;;;41.63;;
52368;SDS011;38298;50.346;3.526;2023-04-05T13:15:01;50.20;;;46.50;;
52368;SDS011;38298;50.346;3.526;2023-04-05T13:17:27;49.97;;;46.28;;
52368;SDS011;38298;50.346;3.526;2023-04-05T13:19:53;47.33;;;43.80;;
52368;SDS011;38298;50.346;3.526;2023-04-05T13:22:19;50.05;;;46.15;;
52368;SDS011;38298;50.346;3.526;2023-04-05T13:24:45;47.20;;;43.65;;
52368;SDS011;38298;50.346;3.526;2023-04-05T13:27:11;46.63;;;43.38;;
52368;SDS011;38298;50.346;3.526;2023-04-05T13:29:37;47.45;;;44.10;;
52368;SDS011;38298;50.346;3.526;2023-04-05T13:32:03;53.00;;;49.13;;
52368;SDS011;38298;50.346;3.526;2023-04-05T13:34:29;50.65;;;46.97;;
52368;SDS011;38298;50.346;3.526;2023-04-05T13:36:55;50.42;;;46.72;;
52368;SDS011;38298;50.346;3.526;2023-04-05T13:39:21;48.88;;;45.40;;
52368;SDS011;38298;50.346;3.526;2023-04-05T13:41:47;47.42;;;44.10;;
52368;SDS011;38298;50.346;3.526;2023-04-05T13:44:14;46.53;;;43.17;;
52368;SDS011;38298;50.346;3.526;2023-04-05T13:46:40;47.38;;;43.72;;
52368;SDS011;38298;50.346;3.526;2023-04-05T13:49:06;47.38;;;43.80;;
52368;SDS011;38298;50.346;3.526;2023-04-05T13:51:32;51.70;;;47.78;;
52368;SDS011;38298;50.346;3.526;2023-04-05T13:53:59;47.13;;;43.58;;
52368;SDS011;38298;50.346;3.526;2023-04-05T13:56:25;46.90;;;43.33;;
52368;SDS011;38298;50.346;3.526;2023-04-05T13:58:51;48.45;;;44.70;;
52368;SDS011;38298;50.346;3.526;2023-04-05T14:01:17;49.42;;;45.58;;
52368;SDS011;38298;50.346;3.526;2023-04-05T14:03:43;49.42;;;45.38;;
52368;SDS011;38298;50.346;3.526;2023-04-05T14:06:09;45.08;;;41.67;;
52368;SDS011;38298;50.346;3.526;2023-04-05T14:08:35;46.42;;;42.92;;
52368;SDS011;38298;50.346;3.526;2023-04-05T14:11:01;47.15;;;43.42;;
52368;SDS011;38298;50.346;3.526;2023-04-05T14:13:27;50.28;;;46.47;;
52368;SDS011;38298;50.346;3.526;2023-04-05T14:15:53;49.78;;;46.25;;
52368;SDS011;38298;50.346;3.526;2023-04-05T14:18:20;48.88;;;45.33;;
52368;SDS011;38298;50.346;3.526;2023-04-05T14:20:46;49.20;;;45.67;;
52368;SDS011;38298;50.346;3.526;2023-04-05T14:23:12;50.30;;;46.70;;
52368;SDS011;38298;50.346;3.526;2023-04-05T14:25:38;57.13;;;52.53;;
52368;SDS011;38298;50.346;3.526;2023-04-05T14:28:04;54.45;;;50.35;;
52368;SDS011;38298;50.346;3.526;2023-04-05T14:30:30;47.72;;;44.25;;
52368;SDS011;38298;50.346;3.526;2023-04-05T14:32:57;40.45;;;37.50;;
52368;SDS011;38298;50.346;3.526;2023-04-05T14:35:23;38.22;;;35.25;;
52368;SDS011;38298;50.346;3.526;2023-04-05T14:37:49;39.28;;;36.38;;
52368;SDS011;38298;50.346;3.526;2023-04-05T14:40:15;37.33;;;34.53;;
52368;SDS011;38298;50.346;3.526;2023-04-05T14:42:41;31.90;;;29.67;;
52368;SDS011;38298;50.346;3.526;2023-04-05T14:45:07;28.73;;;26.73;;
52368;SDS011;38298;50.346;3.526;2023-04-05T14:47:33;30.42;;;28.13;;
52368;SDS011;38298;50.346;3.526;2023-04-05T14:49:59;30.27;;;27.77;;
52368;SDS011;38298;50.346;3.526;2023-04-05T14:52:25;28.85;;;26.83;;
52368;SDS011;38298;50.346;3.526;2023-04-05T14:54:51;26.08;;;24.17;;
52368;SDS011;38298;50.346;3.526;2023-04-05T14:57:17;19.35;;;17.95;;
52368;SDS011;38298;50.346;3.526;2023-04-05T14:59:43;18.52;;;17.25;;
52368;SDS011;38298;50.346;3.526;2023-04-05T15:02:09;20.83;;;19.13;;
52368;SDS011;38298;50.346;3.526;2023-04-05T15:04:36;15.93;;;14.73;;
52368;SDS011;38298;50.346;3.526;2023-04-05T15:07:02;17.55;;;16.02;;
52368;SDS011;38298;50.346;3.526;2023-04-05T15:09:28;19.13;;;17.75;;